createdAt,value
2022-09-15T00:03:47.930Z,28.82
2022-09-15T00:08:50.121Z,28.82
2022-09-15T00:13:53.539Z,28.81
2022-09-15T00:18:55.968Z,28.80
2022-09-15T00:23:59.567Z,28.79
2022-09-15T00:29:02.749Z,28.79
2022-09-15T00:34:05.161Z,28.80
2022-09-15T00:39:07.188Z,28.79
2022-09-15T00:44:24.316Z,28.78
2022-09-15T00:49:31.375Z,28.79
2022-09-15T00:54:36.491Z,28.79
2022-09-15T00:59:41.570Z,28.78
2022-09-15T01:04:43.802Z,28.78
2022-09-15T01:09:58.974Z,28.77
2022-09-15T01:15:02.050Z,28.76
2022-09-15T01:20:25.910Z,28.77
2022-09-15T01:25:48.817Z,28.78
2022-09-15T01:31:33.131Z,28.77
2022-09-15T01:36:35.114Z,28.77
2022-09-15T01:41:51.036Z,28.74
2022-09-15T01:46:58.666Z,28.77
2022-09-15T01:52:01.053Z,28.77
2022-09-15T01:57:03.955Z,28.76
2022-09-15T02:02:12.218Z,28.75
2022-09-15T02:07:45.318Z,28.73
2022-09-15T02:13:17.330Z,28.74
2022-09-15T02:18:35.027Z,28.74
2022-09-15T02:23:43.938Z,28.73
2022-09-15T02:28:49.398Z,28.75
2022-09-15T02:34:00.370Z,28.73
2022-09-15T02:39:09.285Z,28.74
2022-09-15T02:44:11.351Z,28.73
2022-09-15T02:49:14.306Z,28.73
2022-09-15T02:54:16.411Z,28.74
2022-09-15T02:59:18.379Z,28.73
2022-09-15T03:04:20.320Z,28.74
2022-09-15T03:09:22.252Z,28.73
2022-09-15T03:14:24.487Z,28.72
2022-09-15T03:19:26.975Z,28.73
2022-09-15T03:24:28.938Z,28.73
2022-09-15T03:29:31.248Z,28.71
2022-09-15T03:34:33.297Z,28.72
2022-09-15T03:39:35.408Z,28.73
2022-09-15T03:44:37.374Z,28.73
2022-09-15T03:49:39.326Z,28.73
2022-09-15T03:54:41.652Z,28.74
2022-09-15T03:59:43.709Z,28.73
2022-09-15T04:04:45.759Z,28.70
2022-09-15T04:09:47.773Z,28.71
2022-09-15T04:14:49.928Z,28.70
2022-09-15T04:19:51.917Z,28.70
2022-09-15T04:24:54.059Z,28.70
2022-09-15T04:29:56.072Z,28.65
2022-09-15T04:34:58.126Z,28.70
2022-09-15T04:40:01.485Z,28.68
2022-09-15T04:45:03.828Z,28.69
2022-09-15T04:50:06.269Z,28.70
2022-09-15T04:55:08.670Z,28.70
2022-09-15T05:00:11.518Z,28.69
2022-09-15T05:05:13.669Z,28.69
2022-09-15T05:10:15.766Z,28.67
2022-09-15T05:15:17.749Z,28.67
2022-09-15T05:20:19.791Z,28.66
2022-09-15T05:25:21.763Z,28.66
2022-09-15T05:30:37.705Z,28.67
2022-09-15T05:35:59.594Z,28.66
2022-09-15T05:41:06.003Z,28.66
2022-09-15T05:46:09.808Z,28.64
2022-09-15T05:51:12.308Z,28.63
2022-09-15T05:56:16.320Z,28.61
2022-09-15T06:01:24.606Z,28.60
2022-09-15T06:06:27.209Z,28.58
2022-09-15T06:11:35.220Z,28.56
2022-09-15T06:16:37.207Z,28.57
2022-09-15T06:21:39.264Z,28.58
2022-09-15T06:26:41.222Z,28.58
2022-09-15T06:31:43.298Z,28.57
2022-09-15T06:36:45.543Z,28.58
2022-09-15T06:42:01.842Z,28.57
2022-09-15T06:47:04.569Z,28.60
2022-09-15T06:52:07.007Z,28.63
2022-09-15T06:57:08.906Z,28.63
2022-09-15T07:02:11.105Z,28.61
2022-09-15T07:07:13.129Z,28.61
2022-09-15T07:12:15.320Z,28.63
2022-09-15T07:17:17.370Z,28.58
2022-09-15T07:22:19.359Z,28.63
2022-09-15T07:27:25.102Z,28.68
2022-09-15T07:32:27.036Z,28.71
2022-09-15T07:37:29.026Z,28.67
2022-09-15T07:42:35.434Z,28.66
2022-09-15T07:47:38.411Z,28.64
2022-09-15T07:52:40.666Z,28.66
2022-09-15T07:57:42.681Z,28.68
2022-09-15T08:02:44.820Z,28.66
2022-09-15T08:07:46.850Z,28.67
2022-09-15T08:12:49.225Z,28.64
2022-09-15T08:17:51.619Z,28.66
2022-09-15T08:22:53.863Z,28.69
2022-09-15T08:27:56.629Z,28.68
2022-09-15T08:32:58.501Z,28.67
2022-09-15T08:38:00.504Z,28.70
2022-09-15T08:43:12.083Z,28.68
2022-09-15T08:48:16.960Z,28.66
2022-09-15T08:53:34.020Z,28.58
2022-09-15T08:58:37.891Z,28.71
2022-09-15T09:03:53.237Z,28.69
2022-09-15T09:09:04.074Z,28.71
2022-09-15T09:14:36.998Z,28.67
2022-09-15T09:19:52.930Z,28.69
2022-09-15T09:24:58.727Z,28.69
2022-09-15T09:30:12.756Z,28.65
2022-09-15T09:35:31.812Z,28.64
2022-09-15T09:40:34.106Z,28.67
2022-09-15T09:45:36.343Z,28.68
2022-09-15T09:50:43.755Z,28.67
2022-09-15T09:55:46.168Z,28.70
2022-09-15T10:00:48.652Z,28.69
2022-09-15T10:06:13.163Z,28.66
2022-09-15T10:11:15.453Z,28.66
2022-09-15T10:16:19.054Z,28.65
2022-09-15T10:21:24.980Z,28.66
2022-09-15T10:26:33.815Z,28.64
2022-09-15T10:31:35.982Z,28.66
2022-09-15T10:36:38.156Z,28.66
2022-09-15T10:41:59.874Z,28.64
2022-09-15T10:47:44.988Z,28.63
2022-09-15T10:53:25.137Z,28.66
2022-09-15T10:58:51.648Z,28.66
2022-09-15T11:04:25.195Z,28.68
2022-09-15T11:09:30.075Z,28.68
2022-09-15T11:14:56.636Z,28.65
2022-09-15T11:20:17.504Z,28.63
2022-09-15T11:25:23.172Z,28.63
2022-09-15T11:30:30.279Z,28.64
2022-09-15T11:35:46.815Z,28.63
2022-09-15T11:41:13.311Z,28.66
2022-09-15T11:46:25.928Z,28.66
2022-09-15T11:51:33.823Z,28.65
2022-09-15T11:56:44.079Z,28.64
2022-09-15T12:02:34.357Z,28.63
2022-09-15T12:07:46.256Z,28.63
2022-09-15T12:12:51.678Z,28.63
2022-09-15T12:18:37.335Z,28.64
2022-09-15T12:23:42.366Z,28.65
2022-09-15T12:28:47.444Z,28.67
2022-09-15T12:34:06.672Z,28.68
2022-09-15T12:39:29.088Z,28.68
2022-09-15T12:44:46.156Z,28.68
2022-09-15T12:49:50.651Z,28.68
2022-09-15T12:55:03.737Z,28.67
2022-09-15T13:00:21.008Z,28.68
2022-09-15T13:05:41.571Z,28.68
2022-09-15T13:11:29.765Z,28.70
2022-09-15T13:16:34.319Z,28.74
2022-09-15T13:21:40.327Z,28.74
2022-09-15T13:26:44.885Z,28.74
2022-09-15T13:31:53.720Z,28.73
2022-09-15T13:42:23.407Z,28.73
2022-09-15T13:47:30.582Z,28.73
2022-09-15T13:53:04.057Z,28.72
2022-09-15T14:03:53.923Z,28.72
2022-09-15T14:09:04.890Z,28.72
2022-09-15T14:14:19.581Z,28.71
2022-09-15T14:19:37.629Z,28.70
2022-09-15T14:24:40.660Z,28.70
2022-09-15T14:29:42.928Z,28.69
2022-09-15T14:39:58.086Z,28.73
2022-09-15T14:50:37.971Z,28.75
2022-09-15T14:56:04.349Z,28.74
2022-09-15T15:01:27.629Z,28.80
2022-09-15T15:06:31.821Z,28.80
2022-09-15T15:11:37.015Z,28.79
2022-09-15T15:16:57.062Z,28.75
2022-09-15T15:22:14.023Z,28.78
2022-09-15T15:27:34.435Z,28.76
2022-09-15T15:32:36.668Z,28.75
2022-09-15T15:37:39.070Z,28.77
2022-09-15T15:42:59.350Z,28.78
2022-09-15T15:48:03.075Z,28.74
2022-09-15T15:53:05.104Z,28.76
2022-09-15T15:58:08.884Z,28.75
2022-09-15T16:03:11.855Z,28.72
2022-09-15T16:08:38.297Z,28.68
2022-09-15T16:13:41.778Z,28.71
2022-09-15T16:18:43.979Z,28.71
2022-09-15T16:23:46.659Z,28.73
2022-09-15T16:28:48.998Z,28.72
2022-09-15T16:33:51.007Z,28.73
2022-09-15T16:38:53.256Z,28.72
2022-09-15T16:43:58.337Z,28.83
2022-09-15T16:49:00.268Z,28.88
2022-09-15T16:54:02.292Z,28.89
2022-09-15T16:59:04.279Z,28.88
2022-09-15T17:04:17.013Z,28.91
2022-09-15T17:09:18.928Z,28.99
2022-09-15T17:14:20.855Z,29.00
2022-09-15T17:19:22.681Z,29.02
2022-09-15T17:24:24.702Z,29.01
2022-09-15T17:29:27.023Z,29.01
2022-09-15T17:34:28.993Z,29.00
2022-09-15T17:39:31.325Z,28.98
2022-09-15T17:44:35.659Z,28.96
2022-09-15T17:49:39.643Z,28.95
2022-09-15T17:54:41.592Z,28.91
2022-09-15T17:59:43.490Z,28.89
2022-09-15T18:04:46.080Z,28.88
2022-09-15T18:09:48.303Z,28.87
2022-09-15T18:14:50.219Z,28.88
2022-09-15T18:19:52.599Z,28.90
2022-09-15T18:24:54.504Z,28.95
2022-09-15T18:29:56.392Z,28.92
2022-09-15T18:34:58.357Z,28.91
2022-09-15T18:40:00.323Z,28.91
2022-09-15T18:45:02.439Z,28.91
2022-09-15T18:50:06.636Z,28.91
2022-09-15T18:55:12.779Z,28.92
2022-09-15T19:00:24.412Z,28.94
2022-09-15T19:05:27.537Z,28.89
2022-09-15T19:10:29.911Z,28.96
2022-09-15T19:15:34.052Z,28.96
2022-09-15T19:20:36.119Z,28.96
2022-09-15T19:25:40.465Z,28.97
2022-09-15T19:30:42.917Z,28.95
2022-09-15T19:35:44.978Z,28.95
2022-09-15T19:40:47.189Z,28.94
2022-09-15T19:45:49.392Z,28.92
2022-09-15T19:50:51.580Z,28.92
2022-09-15T19:55:53.596Z,28.95
2022-09-15T20:00:56.741Z,28.94
2022-09-15T20:05:59.026Z,28.94
2022-09-15T20:11:06.114Z,28.94
2022-09-15T20:16:08.421Z,28.94
2022-09-15T20:21:21.745Z,28.94
2022-09-15T20:26:29.449Z,28.92
2022-09-15T20:31:33.221Z,28.87
2022-09-15T20:36:36.922Z,28.85
2022-09-15T20:41:40.246Z,28.84
2022-09-15T20:46:43.074Z,28.82
2022-09-15T20:51:45.402Z,28.82
2022-09-15T20:56:47.339Z,28.81
2022-09-15T21:01:49.307Z,28.79
2022-09-15T21:06:51.421Z,28.77
2022-09-15T21:11:53.731Z,28.76
2022-09-15T21:16:55.875Z,28.73
2022-09-15T21:21:58.679Z,28.73
2022-09-15T21:27:19.098Z,28.72
2022-09-15T21:32:21.237Z,28.71
2022-09-15T21:37:26.376Z,28.72
2022-09-15T21:42:28.724Z,28.70
2022-09-15T21:47:32.154Z,28.71
2022-09-15T21:52:34.223Z,28.70
2022-09-15T21:57:36.747Z,28.70
2022-09-15T22:02:38.749Z,28.71
2022-09-15T22:07:40.752Z,28.71
2022-09-15T22:12:42.812Z,28.72
2022-09-15T22:17:44.726Z,28.71
2022-09-15T22:22:46.826Z,28.71
2022-09-15T22:27:48.836Z,28.70
2022-09-15T22:32:50.881Z,28.71
2022-09-15T22:37:52.891Z,28.71
2022-09-15T22:42:55.262Z,28.70
2022-09-15T22:47:57.239Z,28.69
2022-09-15T22:52:59.513Z,28.70
2022-09-15T22:58:01.581Z,28.70
2022-09-15T23:03:03.698Z,28.71
2022-09-15T23:08:05.876Z,28.69
2022-09-15T23:13:08.096Z,28.69
2022-09-15T23:18:10.409Z,28.68
2022-09-15T23:23:12.352Z,28.67
2022-09-15T23:28:14.291Z,28.67
2022-09-15T23:33:16.421Z,28.69
2022-09-15T23:38:20.371Z,28.66
2022-09-15T23:43:22.898Z,28.67
2022-09-15T23:48:24.855Z,28.67
2022-09-15T23:53:27.345Z,28.68
2022-09-15T23:58:29.340Z,28.67
